ADDS TAF Board (Experimental) INFO

IDs: Format: Expanded Condensed

Updated at: 2258 UTC 27 Jan 2015

KSAN - San Diego Intl Arpt, CA, US

Issued at 2108 UTC 27 Jan 2015
Time2251Z27/23Z28/00Z28/01Z28/02Z28/03Z28/04Z28/05Z28/06Z28/07Z28/08Z28/09Z28/10Z28/11Z
TypeOBSPRVLPRVLPRVLPRVLPRVLPRVLPRVLPRVLPRVLPRVLPRVLPRVLPRVL
VIS10>6>6>6>6>6>6>6>6>6>6>6>6>6
CIG----------------------------
CoverSCTSCTSCTSCTSCTSCTSCTSCTSCTSCTSCTSCTSCTSCT
FltCat--VFRVFRVFRVFRVFRVFRVFRVFRVFRVFRVFRVFRVFR
WX----------------------------
WDir310290290VRBVRBVRBVRBVRBVRBVRBVRBVRBVRBVRB
WSpd98844444444444
WGst----------------------------
R09/27
XWnd411VRBVRBVRBVRBVRBVRBVRBVRBVRBVRBVRB
HWnd-8-8-8VRBVRBVRBVRBVRBVRBVRBVRBVRBVRBVRB
Raw TAF
KSAN 272108Z 2721/2824 29008KT P6SM FEW070 SCT250
  FM280100 VRB04KT P6SM SCT250
  FM282000 29008KT P6SM BKN200


Raw METAR
KSAN 272251Z 31009KT 10SM FEW070 SCT250 20/12 A3016 RMK AO2 SLP211 T02000117
KSAN 272151Z 31008KT 10SM FEW070 BKN250 21/09 A3015 RMK AO2 SLP208 T02110089

TAF Board Legend

Hazard VFR MVFR IFR LIFR
Visibility (sm) >5 3≤X≤5 1≤X<3 <1
Ceiling (100 ft) >30 10≤X≤30 5≤X<10 <5
Wind Speed (kt) <10 10≤X<20 20≤X<30 ≥30
Wind Gust (kt) <15 15≤X<25 25≤X<35 ≥35
Weather No Wx Reported VCTS,-TS,-FZRA TS,FZRA +TS,+FZRA


Page loaded:  22:58 UTC  |   02:58 PM Pacific  |   03:58 PM Mountain  |   04:58 PM Central  |   05:58 PM Eastern

 

ADVISORIES

FORECASTS

FORECASTS

OBSERVATIONS

USER TOOLS

ABOUT US